Aérodrome :
LOGIN :

S'inscrire | Disclaimer

   EN    FR    IT 

 










Légende :    VFR   VFR Marginal   IFR   IFR Intensif   IFR Très Intensif
Visi : 
Plafond : 
>= 8 km
>= 3000ft
5 à 8 km
1000 à 3000 ft
1500m à 5 km
500 à 1000 ft
800 à 1500m
200 à 500 ft
< 800m
< 200 ft
Symboles :   Orages  Brouillard  Fortes neiges  Fortes précipitations  Vent > 20 kt
SIGMETs :   Divers  Orages  Givrage  Turbulence  Onde Orograph.  Cendres Volcan.







- Altitude de l'aérodrome : 26 ft
- Code IATA : GLA
- Voir les cartes d'approche


EGPF - Glasgow

DERNIER METAR :
  • 230020Z AUTO VRB02KT 9999 NCD 18/16 Q1015

METARs EXPIRÉS :
  • 222350Z AUTO VRB02KT 9999 NCD 18/16 Q1015
  • 222320Z AUTO 23007KT 9999 NCD 19/16 Q1015
  • 222250Z AUTO 22007KT 160V290 9999 NCD 19/16 Q1015
  • 222220Z AUTO 19009KT 9999 NCD 20/16 Q1015
  • 222150Z AUTO 18010KT 9999 NCD 20/16 Q1015

TAF TAF EGPF
Valide du 23 à 00h jusqu'au 24 à 00h UTC


222259Z 2300/2324 20009KT 9999 FEW025
PROB30 2301/2307 BKN010
ATIS : +44 141 887 7449
Pas de NOTAMs connus pour ce terrain.
1 SIGMET publié pour la FIR Scottish (EGPX) :
 
Onde orographique forte
EGPX SIGMET 06 VALID 222200/230200 EGRR
EGPX SCOTTISH FIR SEV MTW FCST WI N5846 W00710 - N5923 W00109 - N5655 W00104 - N5622 W00615 - N5846 W00710 FL050/200 MOV N 10KT NC=



MET'MAP, la Météo Aéronautique d'un coup d'oeil ! - Copyright ORBIFLY Décembre 2007 - Disclaimer

ORBIFLY MET'MAP TEAM :

Programmation & Développement : Alexandra Zaïnal
Conception & Développement : Baudouin d'Aumeries
Co-Programmation & Développement : Marc-Olivier Méhu
Soutien technique & logistique : Manuel Goepfert

Contact : metmap@orbifly.com




SOURCES & CREDITS :

   NOAA